Addison, KY

9:47 AM CDT on July 29, 2014 (GMT -0500)
Eveleigh Road (KKYLEITC8) Elev 670 ft | 37.58 °N, 86.34 °W | Change Station

Current weather conditions updated 1 second ago

Clear
Clear
69.3 °F
Feels Like 69.3 °F
N
8.3
Wind Variable Wind from NW
Gusts 8.3 mph

Today is forecast to be nearly the same temperature as yesterday.

Today
High -- | Low -- °F
--% Chance of Precip.
Yesterday
High -- | Low -- °F
Precip. -- in
5:46 AM 7:57 PM
Waxing Crescent, 6% visible
Pressure 30.09 in
Visibility 10.0 miles
Clouds Clear
Dew Point 53 °F
Humidity 57%
Rainfall 0.00 in
Snow Depth Not available.
UV 4 out of 12
Pollen 4.30 out of 12
Ozone Good
PM2.5 Good
Flu Activity Not available.
METAR KFTK 291358Z AUTO VRB03KT 10SM CLR 17/11 A3009 RMK AO2 SLP189 T01670113

More Conditions Fewer Conditions

Pressure 30.09 in
Visibility 10.0 miles
Clouds Clear
Dew Point 53 °F
Humidity 57%
Rainfall 0.00 in
Snow Depth Not available.
UV 4 out of 12
Pollen 4.30 out of 12
Ozone Good
PM2.5 Good
Flu Activity Not available.
METAR KFTK 291358Z AUTO VRB03KT 10SM CLR 17/11 A3009 RMK AO2 SLP189 T01670113

More Conditions Fewer Conditions

10-Day Weather Forecast

Almanac

Astronomy

Jul. 29, 2014 Rise Set
Actual Time 5:46 AM CDT 7:57 PM CDT
Civil Twilight 5:17 AM CDT 8:26 PM CDT
Nautical Twilight 4:41 AM CDT 9:02 PM CDT
Astronomical Twilight 4:02 AM CDT 9:41 PM CDT
Moon 8:19 AM CDT 9:13 PM CDT
Length of Visible Light 15h 09m
Length of Day
14h 10m
Tomorrow will be 1m 45s shorter.
Waxing Crescent, 6% of the Moon is Illuminated
Today
Waxing Crescent
Aug 3
First Quarter
Aug 10
Full
Aug 17
Last Quarter
Aug 25
New

Today's Extremes

State Highs State Lows

Community

WunderPhotos

Upload Photos

1,738,749 photos uploaded!

Nearby

Air Quality

  Air Quality AQ Index Pollutant
Yesterday Good
PM10
Yesterday Good
OZONE
Current Good
PM2.5
Current Good
OZONE
Tuesday Good
PM2.5
Tuesday Good
OZONE
Wednesday Good
PM2.5
Wednesday Good
OZONE
Thursday Good
PM2.5
Thursday Good
OZONE

Snow Depth

Station Depth Elevation
No new snow has been reported.

Earthquake Activity

City Distance Mag. Time & Date
No recent earthquake activity has been reported nearby.
Minimum magnitude displayed is 2.5.

Coastal Water Temperatures

Place Temperature
No Stations Reporting

Nearby Weather Stations

Station Location Temp. Heat Index Dew Point Humidity Wind Precip. Elev Updated Type
Eveleigh Road, Leitchfield, KY 69.3 °F - 53 °F 57% NW  at  8.3 mph 0.00 in / hr 670 ft 9:47 AM CDT Rapid Fire
Old Weldon, Brandenburg, KY 64.5 °F - 54 °F 70% North  at  1.0 mph 0.00 in / hr 636 ft 10:47 AM EDT Normal
Wandering Meadows, Vine Grove, KY 68.7 °F - 56 °F 65% North  at  4.7 mph - / hr 719 ft 10:34 AM EDT Normal
Farmington Estates, Vine Grove, KY 70.2 °F 76 °F 55 °F 58% NNW  at  4.7 mph - / hr 669 ft 10:36 AM EDT Normal

Show More Stations Show Fewer Stations